Time;durP1;ratioP1;P1;durP2;ratioP2;P2;SDS_P1;SDS_P2;PMS_P1;PMS_P2;Temp;Humidity;BMP_temperature;BMP_pressure;BME280_temperature;BME280_humidity;BME280_pressure;Samples;Min_cycle;Max_cycle;Signal;HPM_P1;HPM_P2
2024/01/27 00:00:32;;;;;;;5.43;2.10;;;;;;;18.56;38.33;103412.78;4968197;28;20054;-69
2024/01/27 00:02:58;;;;;;;6.53;2.57;;;;;;;18.39;38.71;103382.69;4967480;28;20277;-72
2024/01/27 00:05:23;;;;;;;5.87;2.30;;;;;;;18.36;38.22;103369.59;4969004;28;20359;-71
2024/01/27 00:07:48;;;;;;;6.47;2.87;;;;;;;18.41;38.40;103387.91;4969119;28;20268;-71
2024/01/27 00:10:14;;;;;;;6.75;2.60;;;;;;;18.45;38.45;103385.06;4969168;28;20272;-72
2024/01/27 00:12:40;;;;;;;5.40;2.35;;;;;;;18.37;38.28;103373.94;4969285;28;20075;-71
2024/01/27 00:15:07;;;;;;;6.53;2.60;;;;;;;18.41;38.33;103380.81;4969089;28;20030;-69
2024/01/27 00:17:34;;;;;;;7.57;2.50;;;;;;;18.45;38.03;103393.00;4969483;28;20062;-69
2024/01/27 00:19:59;;;;;;;7.03;2.53;;;;;;;18.41;38.25;103374.69;4969315;28;20054;-69
2024/01/27 00:22:24;;;;;;;7.28;2.60;;;;;;;18.40;38.18;103365.03;4969357;28;20065;-70
2024/01/27 00:24:50;;;;;;;7.30;2.60;;;;;;;18.26;37.99;103349.78;4969103;28;20452;-70
2024/01/27 00:27:16;;;;;;;8.73;2.65;;;;;;;18.30;37.90;103360.16;4969415;28;20050;-69
2024/01/27 00:29:41;;;;;;;7.30;2.50;;;;;;;18.27;38.19;103359.44;4969016;28;20034;-70
2024/01/27 00:32:06;;;;;;;6.78;2.92;;;;;;;18.33;37.90;103372.38;4968827;28;20084;-70
2024/01/27 00:34:31;;;;;;;6.82;2.33;;;;;;;18.34;38.01;103381.16;4968868;28;20081;-70
2024/01/27 00:36:57;;;;;;;7.53;2.80;;;;;;;18.26;37.78;103378.81;4968024;28;20097;-68
2024/01/27 00:39:22;;;;;;;5.82;2.90;;;;;;;18.32;37.78;103394.41;4968637;28;20376;-70
2024/01/27 00:41:47;;;;;;;6.35;2.42;;;;;;;18.31;38.09;103395.34;4967202;28;20073;-70
2024/01/27 00:44:13;;;;;;;7.15;3.00;;;;;;;18.18;37.75;103375.66;4968685;28;20058;-69
2024/01/27 00:46:38;;;;;;;5.53;2.33;;;;;;;18.30;37.73;103402.38;4969230;28;20030;-69
2024/01/27 00:49:04;;;;;;;5.75;2.47;;;;;;;18.17;37.54;103380.09;4968906;28;20038;-70
2024/01/27 00:51:29;;;;;;;6.30;2.72;;;;;;;18.24;37.74;103404.44;4968533;28;20438;-70
2024/01/27 00:53:54;;;;;;;5.40;2.40;;;;;;;18.26;37.85;103397.31;4968078;28;20035;-69
2024/01/27 00:56:19;;;;;;;7.60;3.05;;;;;;;18.25;37.58;103403.53;4968838;28;20034;-69
2024/01/27 00:58:45;;;;;;;7.07;2.83;;;;;;;18.15;37.55;103397.78;4968663;28;20046;-72
2024/01/27 01:01:10;;;;;;;7.55;2.80;;;;;;;18.20;37.81;103394.91;4968219;28;20030;-69
2024/01/27 01:03:35;;;;;;;7.07;3.05;;;;;;;18.21;37.46;103400.13;4966441;28;20141;-69
2024/01/27 01:06:01;;;;;;;5.45;2.67;;;;;;;18.18;37.46;103400.25;4967696;28;20037;-69
2024/01/27 01:08:26;;;;;;;6.47;2.40;;;;;;;18.09;37.26;103380.41;4968499;28;20031;-68
2024/01/27 01:10:51;;;;;;;5.72;2.72;;;;;;;18.17;37.23;103410.91;4967866;28;20465;-71
2024/01/27 01:13:17;;;;;;;8.43;2.90;;;;;;;18.08;37.45;103402.41;4968128;28;20039;-70
2024/01/27 01:15:42;;;;;;;5.68;2.20;;;;;;;18.04;37.37;103394.69;4968102;28;20057;-68
2024/01/27 01:18:07;;;;;;;6.63;2.55;;;;;;;18.10;37.25;103399.72;4968272;28;20114;-68
2024/01/27 01:20:33;;;;;;;5.57;2.70;;;;;;;18.16;37.51;103412.66;4968207;28;20053;-71
2024/01/27 01:22:58;;;;;;;5.68;2.53;;;;;;;18.05;37.39;103401.69;4968220;28;20069;-71
2024/01/27 01:25:23;;;;;;;5.60;2.50;;;;;;;18.09;37.19;103403.28;4967987;28;20035;-72
2024/01/27 01:27:49;;;;;;;6.32;2.22;;;;;;;18.03;37.30;103391.19;4968213;28;20129;-71
2024/01/27 01:30:16;;;;;;;7.90;2.55;;;;;;;18.08;37.43;103399.78;4968112;28;20035;-70
2024/01/27 01:32:42;;;;;;;7.63;2.80;;;;;;;18.00;37.16;103388.69;4967957;28;20043;-71
2024/01/27 01:35:07;;;;;;;6.15;2.80;;;;;;;18.08;37.28;103415.59;4967656;28;20041;-71
2024/01/27 01:37:32;;;;;;;6.82;2.78;;;;;;;17.99;36.95;103391.38;4968271;28;20089;-70
2024/01/27 01:39:58;;;;;;;5.97;2.55;;;;;;;18.05;37.30;103402.53;4968474;28;20039;-71
2024/01/27 01:42:24;;;;;;;6.40;2.90;;;;;;;17.92;36.96;103388.13;4968307;28;20038;-70
2024/01/27 01:44:51;;;;;;;6.07;2.55;;;;;;;18.00;37.37;103399.22;4964037;28;20047;-71
2024/01/27 01:47:16;;;;;;;5.88;2.60;;;;;;;17.89;37.36;103383.84;4967282;28;20031;-69
2024/01/27 01:49:42;;;;;;;5.68;2.42;;;;;;;18.05;37.33;103412.25;4967535;28;20031;-71
2024/01/27 01:52:08;;;;;;;5.97;2.53;;;;;;;18.05;37.20;103423.66;4967667;28;20030;-70
2024/01/27 01:54:33;;;;;;;7.43;2.80;;;;;;;18.02;36.84;103413.22;4967516;28;20066;-70
2024/01/27 01:56:59;;;;;;;7.68;2.55;;;;;;;17.94;37.43;103404.75;4967866;28;20089;-70
2024/01/27 01:59:24;;;;;;;6.85;2.67;;;;;;;17.99;37.06;103420.41;4967750;28;20054;-70
2024/01/27 02:01:50;;;;;;;7.88;2.58;;;;;;;17.90;37.13;103397.91;4966444;28;20112;-69
2024/01/27 02:04:15;;;;;;;7.70;2.80;;;;;;;18.02;36.98;103412.38;4968054;28;20530;-70
2024/01/27 02:06:40;;;;;;;6.15;2.60;;;;;;;17.99;36.65;103418.66;4971713;28;20034;-70
2024/01/27 02:09:06;;;;;;;6.63;2.88;;;;;;;17.87;37.30;103404.13;4971754;28;20464;-71
2024/01/27 02:11:31;;;;;;;6.78;3.28;;;;;;;17.97;37.20;103412.56;4970305;28;20044;-69
2024/01/27 02:13:56;;;;;;;6.15;2.80;;;;;;;17.87;37.01;103398.00;4971746;28;20480;-70
2024/01/27 02:16:22;;;;;;;7.28;3.47;;;;;;;17.88;37.07;103407.63;4971663;28;20066;-71
2024/01/27 02:18:47;;;;;;;6.30;2.67;;;;;;;17.92;36.91;103411.88;4971376;28;20391;-70
2024/01/27 02:21:12;;;;;;;6.80;3.22;;;;;;;17.98;36.74;103430.09;4971353;28;20038;-70
2024/01/27 02:23:38;;;;;;;7.22;2.80;;;;;;;17.94;36.88;103423.22;4971256;28;20035;-70
2024/01/27 02:26:03;;;;;;;5.68;2.88;;;;;;;17.94;36.88;103424.09;4970895;28;20034;-70
2024/01/27 02:28:31;;;;;;;7.70;2.72;;;;;;;17.82;36.55;103402.59;4971310;28;20042;-69
2024/01/27 02:30:57;;;;;;;6.38;2.72;;;;;;;17.92;36.54;103428.56;4971433;28;20038;-71
2024/01/27 02:33:22;;;;;;;8.60;3.03;;;;;;;17.89;36.88;103422.56;4971403;28;20040;-70
2024/01/27 02:35:48;;;;;;;6.70;2.92;;;;;;;17.84;36.70;103417.44;4971218;28;20518;-71
2024/01/27 02:38:13;;;;;;;7.78;3.00;;;;;;;17.74;36.54;103401.09;4971458;28;20026;-71
2024/01/27 02:40:38;;;;;;;6.57;3.20;;;;;;;17.78;36.65;103404.47;4971196;28;20027;-71
2024/01/27 02:43:04;;;;;;;6.93;2.78;;;;;;;17.82;36.69;103419.28;4971211;28;20590;-70
2024/01/27 02:45:29;;;;;;;6.47;3.03;;;;;;;17.86;36.64;103426.13;4970872;28;20122;-71
2024/01/27 02:47:54;;;;;;;7.20;3.20;;;;;;;17.87;36.38;103430.50;4970992;28;20027;-69
2024/01/27 02:50:20;;;;;;;6.65;2.75;;;;;;;17.73;36.66;103406.44;4970479;28;20977;-70
2024/01/27 02:52:45;;;;;;;6.88;2.67;;;;;;;17.72;36.71;103410.88;4971060;28;20045;-70
2024/01/27 02:55:10;;;;;;;6.55;3.00;;;;;;;17.78;36.59;103412.38;4970699;28;20092;-71
2024/01/27 02:57:36;;;;;;;8.40;2.97;;;;;;;17.85;36.58;103428.81;4970848;28;20050;-71
2024/01/27 03:00:01;;;;;;;6.15;2.80;;;;;;;17.79;36.42;103418.53;4970296;28;20047;-70
2024/01/27 03:02:26;;;;;;;7.07;3.03;;;;;;;17.71;36.74;103400.38;4969183;28;20034;-71
2024/01/27 03:04:52;;;;;;;8.65;2.83;;;;;;;17.76;37.10;103407.16;4970220;28;20037;-71
2024/01/27 03:07:17;;;;;;;6.05;2.78;;;;;;;17.73;36.75;103414.34;4970956;28;20042;-71
2024/01/27 03:09:42;;;;;;;7.47;3.08;;;;;;;17.72;36.92;103412.63;4970629;28;20559;-71
2024/01/27 03:12:08;;;;;;;7.60;2.65;;;;;;;17.67;36.42;103402.25;4970505;28;20106;-70
2024/01/27 03:14:33;;;;;;;6.20;2.95;;;;;;;17.79;36.51;103426.44;4970428;28;20053;-70
2024/01/27 03:16:58;;;;;;;7.70;2.88;;;;;;;17.67;36.38;103404.88;4969248;28;20396;-70
2024/01/27 03:19:24;;;;;;;6.75;2.90;;;;;;;17.79;36.23;103431.72;4970253;28;20094;-70
2024/01/27 03:21:49;;;;;;;6.78;2.67;;;;;;;17.76;36.31;103430.91;4970303;28;20046;-71
2024/01/27 03:24:14;;;;;;;7.78;2.90;;;;;;;17.72;36.30;103429.31;4970181;28;20352;-71
2024/01/27 03:26:39;;;;;;;6.32;2.72;;;;;;;17.60;36.74;103400.78;4970019;28;20034;-70
2024/01/27 03:29:05;;;;;;;5.20;2.47;;;;;;;17.72;36.51;103428.44;4970077;28;20034;-71
2024/01/27 03:31:31;;;;;;;5.40;2.90;;;;;;;17.59;36.47;103409.59;4970206;28;20848;-71
2024/01/27 03:33:57;;;;;;;7.70;3.20;;;;;;;17.71;36.13;103430.22;4970263;28;20037;-69
2024/01/27 03:36:23;;;;;;;5.78;2.65;;;;;;;17.71;36.07;103434.66;4969735;28;21289;-70
2024/01/27 03:38:48;;;;;;;6.57;2.92;;;;;;;17.73;36.28;103448.63;4968679;28;20209;-70
2024/01/27 03:41:14;;;;;;;6.50;3.25;;;;;;;17.65;36.30;103430.47;4969777;28;20523;-70
2024/01/27 03:43:39;;;;;;;8.73;3.27;;;;;;;17.61;36.12;103423.63;4969794;28;20129;-71
2024/01/27 03:46:04;;;;;;;5.70;2.63;;;;;;;17.57;36.35;103416.72;4970045;28;20327;-71
2024/01/27 03:48:30;;;;;;;6.47;3.03;;;;;;;17.65;36.26;103433.09;4969702;28;20070;-69
2024/01/27 03:50:55;;;;;;;6.03;2.95;;;;;;;17.56;36.19;103413.25;4969766;28;20261;-69
2024/01/27 03:53:20;;;;;;;5.60;2.67;;;;;;;17.66;36.01;103429.56;4969995;28;20036;-69
2024/01/27 03:55:45;;;;;;;6.03;2.78;;;;;;;17.69;35.95;103442.63;4969946;28;20086;-69
2024/01/27 03:58:11;;;;;;;6.75;3.45;;;;;;;17.65;35.76;103430.47;4969917;28;20093;-69
2024/01/27 04:00:36;;;;;;;6.35;2.90;;;;;;;17.63;36.14;103427.03;4969716;28;20035;-70
2024/01/27 04:03:02;;;;;;;6.75;2.80;;;;;;;17.61;36.47;103428.88;4967819;28;20039;-68
2024/01/27 04:05:29;;;;;;;6.65;2.45;;;;;;;17.59;36.66;103423.66;4969466;28;20498;-69
2024/01/27 04:07:54;;;;;;;6.55;2.78;;;;;;;17.52;36.57;103422.16;4969948;28;20065;-69
2024/01/27 04:10:20;;;;;;;6.95;2.90;;;;;;;17.64;36.55;103443.72;4969873;28;20066;-70
2024/01/27 04:12:46;;;;;;;7.38;2.67;;;;;;;17.59;36.74;103430.69;4969658;28;20510;-70
2024/01/27 04:15:11;;;;;;;6.40;2.53;;;;;;;17.51;36.47;103419.59;4969591;28;20105;-70
2024/01/27 04:17:40;;;;;;;6.80;2.83;;;;;;;17.60;36.59;103445.63;4969567;28;20130;-68
2024/01/27 04:20:07;;;;;;;5.82;2.67;;;;;;;17.47;36.71;103426.75;4969328;28;20049;-69
2024/01/27 04:22:33;;;;;;;6.72;2.70;;;;;;;17.47;36.84;103428.56;4969713;28;20483;-69
2024/01/27 04:24:58;;;;;;;7.32;3.15;;;;;;;17.58;36.74;103444.81;4969210;28;20078;-69
2024/01/27 04:27:23;;;;;;;6.50;2.97;;;;;;;17.54;36.80;103445.84;4969452;28;20070;-70
2024/01/27 04:29:49;;;;;;;6.22;2.38;;;;;;;17.49;37.00;103432.84;4969196;28;20153;-70
2024/01/27 04:32:14;;;;;;;7.13;3.15;;;;;;;17.55;36.89;103443.16;4969221;28;20034;-71
2024/01/27 04:34:39;;;;;;;6.18;2.90;;;;;;;17.55;37.03;103440.50;4969150;28;20027;-71
2024/01/27 04:37:05;;;;;;;7.72;2.88;;;;;;;17.52;36.98;103445.06;4967786;28;20526;-68
2024/01/27 04:39:30;;;;;;;7.47;2.70;;;;;;;17.40;37.16;103423.50;4969053;28;20097;-71
2024/01/27 04:41:56;;;;;;;6.53;2.70;;;;;;;17.56;37.10;103451.91;4968438;28;20480;-69
2024/01/27 04:44:21;;;;;;;6.13;2.80;;;;;;;17.51;36.86;103446.81;4968977;28;20082;-70
2024/01/27 04:46:47;;;;;;;7.88;2.78;;;;;;;17.51;37.20;103444.16;4969171;28;20460;-71
2024/01/27 04:49:12;;;;;;;8.02;2.67;;;;;;;17.48;37.34;103443.44;4968459;28;20390;-71
2024/01/27 04:51:37;;;;;;;7.18;2.50;;;;;;;17.48;36.99;103451.34;4968501;28;20054;-70
2024/01/27 04:54:03;;;;;;;7.22;2.80;;;;;;;17.43;37.31;103438.34;4968428;28;20459;-69
2024/01/27 04:56:28;;;;;;;6.88;2.58;;;;;;;17.45;37.32;103436.50;4968692;28;20059;-70
2024/01/27 04:58:53;;;;;;;6.20;2.88;;;;;;;17.48;37.44;103441.69;4968706;28;20439;-70
2024/01/27 05:01:18;;;;;;;8.32;2.83;;;;;;;17.49;37.41;103439.88;4968487;28;20467;-69
2024/01/27 05:03:44;;;;;;;8.45;2.85;;;;;;;17.48;37.48;103446.06;4966610;28;20030;-71
2024/01/27 05:06:10;;;;;;;6.25;2.70;;;;;;;17.49;37.48;103448.66;4968399;28;20035;-71
2024/01/27 05:08:35;;;;;;;6.78;2.65;;;;;;;17.45;37.45;103443.53;4968651;28;20035;-71
2024/01/27 05:11:01;;;;;;;5.53;2.40;;;;;;;17.45;37.54;103443.53;4968467;28;20031;-71
2024/01/27 05:13:26;;;;;;;5.90;2.58;;;;;;;17.33;37.51;103426.41;4968588;28;20081;-72
2024/01/27 05:15:51;;;;;;;7.97;3.13;;;;;;;17.32;37.50;103422.94;4968290;28;20479;-70
2024/01/27 05:18:17;;;;;;;7.20;2.63;;;;;;;17.32;37.22;103425.56;4967673;28;20109;-68
2024/01/27 05:20:42;;;;;;;5.68;2.72;;;;;;;17.37;37.66;103444.72;4967950;28;20033;-68
2024/01/27 05:23:07;;;;;;;6.65;2.83;;;;;;;17.32;37.16;103428.22;4968246;28;20034;-69
2024/01/27 05:25:33;;;;;;;7.22;2.60;;;;;;;17.42;37.45;103457.72;4967817;28;20031;-69
2024/01/27 05:27:58;;;;;;;7.00;2.92;;;;;;;17.30;37.38;103422.13;4967509;28;20431;-70
2024/01/27 05:30:23;;;;;;;6.53;2.50;;;;;;;17.27;37.06;103419.59;4968147;28;20367;-70
2024/01/27 05:32:49;;;;;;;6.80;2.55;;;;;;;17.41;37.11;103443.66;4964157;28;20039;-71
2024/01/27 05:35:14;;;;;;;7.07;2.67;;;;;;;17.44;37.19;103455.88;4965971;28;20039;-72
2024/01/27 05:37:40;;;;;;;7.32;2.72;;;;;;;17.27;37.13;103418.75;4966128;28;20555;-71
2024/01/27 05:40:07;;;;;;;6.97;2.78;;;;;;;17.31;37.31;103421.22;4966958;28;20023;-71
2024/01/27 05:42:32;;;;;;;5.90;2.75;;;;;;;17.29;37.36;103420.41;4966093;28;20061;-72
2024/01/27 05:44:57;;;;;;;6.97;2.50;;;;;;;17.37;37.29;103428.88;4967840;28;20468;-70
2024/01/27 05:47:22;;;;;;;6.93;2.97;;;;;;;17.29;37.71;103401.09;4967952;28;20486;-69
2024/01/27 05:49:48;;;;;;;6.22;2.35;;;;;;;17.38;37.87;103419.19;4967721;28;20038;-69
2024/01/27 05:52:13;;;;;;;5.43;2.70;;;;;;;17.37;37.99;103399.91;4967931;28;20093;-70
2024/01/27 05:54:41;;;;;;;5.38;2.15;;;;;;;17.54;38.08;103428.25;4967546;28;20548;-70
2024/01/27 05:57:06;;;;;;;5.65;2.67;;;;;;;17.46;38.52;103403.09;4967616;28;20058;-70
2024/01/27 05:59:32;;;;;;;4.72;1.90;;;;;;;17.52;38.33;103416.91;4968227;28;20030;-71
2024/01/27 06:01:57;;;;;;;5.65;2.05;;;;;;;17.54;38.74;103416.84;4965460;28;20534;-71
2024/01/27 06:04:23;;;;;;;4.80;2.03;;;;;;;17.58;38.57;103414.03;4967096;28;20031;-71
2024/01/27 06:06:48;;;;;;;5.60;2.00;;;;;;;17.74;38.19;103435.41;4967491;28;20458;-70
2024/01/27 06:09:13;;;;;;;6.20;2.60;;;;;;;17.71;38.23;103424.13;4967426;28;20049;-70
2024/01/27 06:11:39;;;;;;;6.00;2.30;;;;;;;17.81;38.50;103424.59;4967340;28;20035;-70
2024/01/27 06:14:04;;;;;;;5.55;2.33;;;;;;;17.81;38.51;103419.34;4967403;28;20053;-70
2024/01/27 06:16:30;;;;;;;5.10;2.28;;;;;;;17.73;38.40;103404.66;4967039;28;20550;-70
2024/01/27 06:18:56;;;;;;;6.57;2.72;;;;;;;17.84;38.40;103420.06;4967588;28;20400;-71
2024/01/27 06:21:21;;;;;;;5.15;2.13;;;;;;;17.76;38.55;103404.53;4967563;28;20037;-70
2024/01/27 06:23:46;;;;;;;5.28;2.13;;;;;;;17.89;38.74;103419.91;4964662;28;20030;-70
2024/01/27 06:26:13;;;;;;;5.00;2.08;;;;;;;17.79;38.87;103403.56;4966951;28;20026;-71
2024/01/27 06:28:38;;;;;;;5.00;1.92;;;;;;;17.82;38.52;103418.44;4967351;28;20035;-70
2024/01/27 06:31:04;;;;;;;6.28;2.28;;;;;;;17.93;38.88;103432.94;4967429;28;20483;-70
2024/01/27 06:33:30;;;;;;;5.15;2.05;;;;;;;17.90;38.89;103421.66;4967598;28;20039;-70
2024/01/27 06:35:55;;;;;;;6.63;2.10;;;;;;;17.92;38.98;103419.78;4967335;28;20539;-71
2024/01/27 06:38:21;;;;;;;5.90;2.13;;;;;;;17.92;38.80;103420.66;4967371;28;20089;-71
2024/01/27 06:40:46;;;;;;;5.85;2.25;;;;;;;18.00;39.10;103436.19;4967504;28;20035;-70
2024/01/27 06:43:13;;;;;;;5.80;2.35;;;;;;;17.90;39.06;103422.50;4967196;28;20031;-70
2024/01/27 06:45:39;;;;;;;7.22;2.50;;;;;;;17.92;38.91;103423.28;4965881;28;20450;-70
2024/01/27 06:48:06;;;;;;;5.75;2.05;;;;;;;17.93;39.15;103424.16;4966773;28;20066;-70
2024/01/27 06:50:31;;;;;;;6.82;2.42;;;;;;;17.95;39.26;103428.44;4968283;28;20399;-70
2024/01/27 06:52:57;;;;;;;5.43;2.13;;;;;;;17.95;39.01;103431.06;4970604;28;20030;-70
2024/01/27 06:55:22;;;;;;;6.13;2.13;;;;;;;18.06;39.17;103446.50;4970599;28;20031;-71
2024/01/27 06:57:47;;;;;;;7.13;2.17;;;;;;;18.03;39.30;103453.69;4970700;28;20030;-70
2024/01/27 07:00:16;;;;;;;6.10;2.30;;;;;;;18.04;39.12;103458.91;4970391;28;20031;-73
2024/01/27 07:02:42;;;;;;;5.75;2.33;;;;;;;18.11;38.85;103480.63;4968421;28;20071;-69
2024/01/27 07:05:08;;;;;;;7.20;2.42;;;;;;;17.95;38.96;103449.53;4970437;28;20416;-70
2024/01/27 07:07:33;;;;;;;5.10;2.15;;;;;;;18.06;38.92;103469.38;4970601;28;20038;-70
2024/01/27 07:09:58;;;;;;;5.63;2.38;;;;;;;18.09;38.68;103477.19;4970872;28;20125;-70
2024/01/27 07:12:24;;;;;;;5.63;2.55;;;;;;;18.13;38.86;103484.94;4970330;28;20034;-71
2024/01/27 07:14:51;;;;;;;6.85;2.75;;;;;;;18.12;39.15;103480.56;4970748;28;20041;-70
2024/01/27 07:17:16;;;;;;;7.63;2.95;;;;;;;18.06;39.54;103464.13;4970155;28;20035;-68
2024/01/27 07:19:42;;;;;;;5.43;2.65;;;;;;;18.09;39.57;103467.47;4970488;28;20026;-70
2024/01/27 07:22:07;;;;;;;5.60;2.15;;;;;;;17.98;39.92;103445.94;4970380;28;20392;-69
2024/01/27 07:24:33;;;;;;;5.78;2.30;;;;;;;18.12;39.83;103480.56;4970530;28;20119;-69
2024/01/27 07:27:00;;;;;;;5.22;2.25;;;;;;;18.00;39.79;103451.16;4970176;28;20085;-71
2024/01/27 07:29:26;;;;;;;5.60;2.42;;;;;;;18.15;40.07;103479.59;4969970;28;20027;-68
2024/01/27 07:31:52;;;;;;;6.70;2.40;;;;;;;18.05;40.40;103470.31;4970194;28;20031;-69
2024/01/27 07:34:17;;;;;;;7.13;2.72;;;;;;;18.16;40.19;103477.81;4968682;28;20045;-68
2024/01/27 07:36:43;;;;;;;5.72;2.47;;;;;;;18.15;40.12;103483.97;4969840;28;20097;-72
2024/01/27 07:39:08;;;;;;;6.43;2.55;;;;;;;18.13;40.33;103482.28;4970265;28;20432;-68
2024/01/27 07:41:34;;;;;;;8.93;2.88;;;;;;;18.03;40.20;103461.59;4970279;28;20037;-71
2024/01/27 07:44:13;;;;;;;6.03;2.67;;;;;;;18.13;40.43;103482.28;4970150;28;20463;-70
2024/01/27 07:46:40;;;;;;;7.90;2.60;;;;;;;18.04;40.44;103466.81;4969893;28;20388;-70
2024/01/27 07:49:06;;;;;;;6.95;2.50;;;;;;;18.17;40.60;103488.28;4969959;28;20035;-69
2024/01/27 07:51:32;;;;;;;7.25;2.75;;;;;;;18.14;40.72;103491.06;4969492;28;20037;-69
2024/01/27 07:53:59;;;;;;;7.20;2.55;;;;;;;18.13;40.93;103495.47;4969506;28;20034;-69
2024/01/27 07:56:24;;;;;;;5.03;2.08;;;;;;;18.19;41.26;103504.06;4969822;28;20081;-68
2024/01/27 07:58:49;;;;;;;7.25;2.40;;;;;;;18.21;41.53;103497.78;4970076;28;20043;-69
2024/01/27 08:01:15;;;;;;;7.40;2.83;;;;;;;18.17;41.36;103485.66;4969477;28;20067;-69
2024/01/27 08:03:41;;;;;;;6.32;2.40;;;;;;;18.18;41.12;103491.78;4967346;28;20043;-68
2024/01/27 08:06:09;;;;;;;7.03;2.53;;;;;;;18.15;41.31;103483.97;4969266;28;20049;-71
2024/01/27 08:08:35;;;;;;;6.10;2.50;;;;;;;18.23;41.44;103493.34;4969542;28;20038;-69
2024/01/27 08:11:00;;;;;;;7.70;2.65;;;;;;;18.20;41.33;103476.72;4967985;28;20035;-71
2024/01/27 08:13:25;;;;;;;5.70;2.20;;;;;;;18.21;41.42;103474.03;4969480;28;20033;-69
2024/01/27 08:15:51;;;;;;;5.88;2.33;;;;;;;18.11;41.80;103460.34;4969407;28;20027;-70
2024/01/27 08:18:16;;;;;;;5.37;2.70;;;;;;;18.21;42.01;103484.59;4969063;28;20421;-70
2024/01/27 08:20:41;;;;;;;6.57;2.55;;;;;;;18.24;41.99;103488.91;4968621;28;20260;-70
2024/01/27 08:23:08;;;;;;;5.95;2.30;;;;;;;18.23;41.64;103481.91;4968703;28;20608;-69
2024/01/27 08:25:33;;;;;;;7.72;2.90;;;;;;;18.20;41.46;103474.09;4969042;28;20054;-68
2024/01/27 08:27:58;;;;;;;7.57;3.33;;;;;;;18.24;41.68;103480.97;4968478;28;20105;-71
2024/01/27 08:30:23;;;;;;;6.55;2.47;;;;;;;18.19;41.62;103464.47;4966911;28;20069;-70
2024/01/27 08:32:49;;;;;;;6.70;2.45;;;;;;;18.13;41.19;103457.66;4965380;28;20047;-70
2024/01/27 08:35:14;;;;;;;7.40;2.90;;;;;;;18.20;41.38;103471.47;4968614;28;20031;-70
2024/01/27 08:37:39;;;;;;;7.93;2.65;;;;;;;18.24;41.34;103478.34;4968555;28;20146;-70
2024/01/27 08:40:06;;;;;;;6.15;2.65;;;;;;;18.10;41.58;103460.41;4968878;28;20026;-70
2024/01/27 08:42:31;;;;;;;6.88;2.30;;;;;;;18.14;41.32;103472.56;4968887;28;20570;-69
2024/01/27 08:44:56;;;;;;;6.43;2.70;;;;;;;18.11;41.79;103481.47;4968006;28;20117;-70
2024/01/27 08:47:22;;;;;;;6.65;2.90;;;;;;;18.19;41.63;103493.50;4968820;28;20027;-70
2024/01/27 08:49:47;;;;;;;8.35;3.00;;;;;;;18.19;41.91;103488.25;4968428;28;20038;-68
2024/01/27 08:52:12;;;;;;;7.03;2.70;;;;;;;18.19;41.73;103488.25;4968638;28;20361;-68
2024/01/27 08:54:38;;;;;;;5.15;2.50;;;;;;;18.19;41.52;103486.44;4967492;28;20027;-71
2024/01/27 08:57:03;;;;;;;6.13;2.53;;;;;;;18.19;42.16;103488.25;4968948;28;20038;-68
2024/01/27 08:59:29;;;;;;;6.15;2.33;;;;;;;18.12;41.77;103477.06;4968801;28;20081;-74
2024/01/27 09:01:54;;;;;;;8.18;2.70;;;;;;;18.21;41.80;103496.94;4971375;28;20142;-69
2024/01/27 09:04:19;;;;;;;6.57;2.20;;;;;;;18.23;41.91;103510.94;4968615;28;20146;-68
2024/01/27 09:06:45;;;;;;;6.70;2.50;;;;;;;18.16;41.64;103496.28;4967985;28;20031;-70
2024/01/27 09:09:12;;;;;;;5.57;2.60;;;;;;;18.09;41.72;103483.31;4966759;28;20042;-70
2024/01/27 09:11:37;;;;;;;7.43;2.42;;;;;;;18.23;41.75;103513.56;4967830;28;20113;-69
2024/01/27 09:14:04;;;;;;;6.75;2.60;;;;;;;18.19;41.56;103498.78;4967283;28;20106;-69
2024/01/27 09:16:30;;;;;;;5.78;2.25;;;;;;;18.09;41.76;103483.31;4967919;28;20046;-69
2024/01/27 09:18:55;;;;;;;6.65;2.55;;;;;;;18.22;41.80;103507.44;4968203;28;20035;-69
2024/01/27 09:21:22;;;;;;;6.22;2.40;;;;;;;18.14;41.85;103504.25;4968163;28;20101;-71
2024/01/27 09:23:47;;;;;;;6.97;2.53;;;;;;;18.14;41.99;103504.25;4968055;28;20034;-72
2024/01/27 09:26:15;;;;;;;6.13;2.50;;;;;;;18.23;42.02;103521.50;4968161;28;20077;-69
2024/01/27 09:28:43;;;;;;;5.85;2.35;;;;;;;18.12;42.12;103500.81;4968294;28;20225;-69
2024/01/27 09:31:11;;;;;;;5.55;2.47;;;;;;;18.22;42.16;103517.16;4968385;28;20082;-68
2024/01/27 09:33:37;;;;;;;6.20;2.47;;;;;;;18.10;41.98;103511.44;4968012;28;20038;-71
2024/01/27 09:36:03;;;;;;;7.25;2.88;;;;;;;18.15;41.90;103520.94;4967643;28;20098;-69
2024/01/27 09:38:28;;;;;;;6.25;2.55;;;;;;;18.17;41.65;103534.97;4967852;28;20030;-69
2024/01/27 09:40:54;;;;;;;6.68;2.58;;;;;;;18.19;41.69;103535.75;4967773;28;20478;-69
2024/01/27 09:43:19;;;;;;;6.00;2.28;;;;;;;18.23;42.07;103547.88;4967844;28;20058;-69
2024/01/27 09:45:45;;;;;;;5.90;2.47;;;;;;;18.19;42.11;103535.75;4967757;28;20037;-69
2024/01/27 09:48:12;;;;;;;6.95;2.60;;;;;;;18.18;41.85;103537.50;4967819;28;20117;-72
2024/01/27 09:50:41;;;;;;;8.77;2.50;;;;;;;18.09;42.17;103530.81;4967308;28;20070;-70
2024/01/27 09:53:08;;;;;;;5.80;2.20;;;;;;;18.09;42.17;103525.53;4967751;28;20038;-70
2024/01/27 09:55:34;;;;;;;6.90;2.72;;;;;;;18.05;41.99;103529.19;4967673;28;20035;-70
2024/01/27 09:58:00;;;;;;;5.65;2.40;;;;;;;18.23;41.89;103558.44;4967375;28;20427;-71
2024/01/27 10:00:26;;;;;;;7.63;2.67;;;;;;;18.15;42.00;103550.84;4967086;28;20034;-70
2024/01/27 10:02:54;;;;;;;6.90;2.63;;;;;;;18.11;41.91;103550.09;4965709;28;20035;-70
2024/01/27 10:05:20;;;;;;;6.85;2.25;;;;;;;18.16;42.12;103560.47;4966851;28;20115;-70
2024/01/27 10:07:45;;;;;;;7.15;2.67;;;;;;;18.17;42.45;103562.19;4966777;28;20030;-70
2024/01/27 10:10:10;;;;;;;6.35;2.45;;;;;;;18.06;42.32;103535.38;4964601;28;20073;-70
2024/01/27 10:12:41;;;;;;;6.25;2.30;;;;;;;18.21;42.08;103552.38;4964546;28;20073;-70
2024/01/27 10:15:17;;;;;;;6.18;2.13;;;;;;;18.14;42.22;103551.75;4966887;28;20026;-70
2024/01/27 10:17:42;;;;;;;6.38;2.45;;;;;;;18.09;42.23;103540.53;4967065;28;20038;-71
2024/01/27 10:20:09;;;;;;;6.60;2.50;;;;;;;18.11;42.06;103544.81;4967281;28;20031;-70
2024/01/27 10:22:39;;;;;;;6.70;2.38;;;;;;;18.12;42.37;103561.53;4966723;28;20313;-70
2024/01/27 10:25:05;;;;;;;5.32;2.15;;;;;;;18.25;42.87;103575.09;4967826;28;20383;-70
2024/01/27 10:27:30;;;;;;;6.60;2.45;;;;;;;18.03;42.82;103536.34;4970866;28;20039;-69
2024/01/27 10:29:56;;;;;;;7.83;2.30;;;;;;;18.25;42.54;103561.91;4970894;28;20041;-70
2024/01/27 10:32:24;;;;;;;7.28;2.63;;;;;;;18.15;42.59;103545.56;4970824;28;20263;-69
2024/01/27 10:35:10;;;;;;;6.20;2.28;;;;;;;18.26;42.73;103569.78;4970285;28;20046;-69
2024/01/27 10:37:39;;;;;;;6.20;2.38;;;;;;;18.26;42.39;103575.03;4971039;28;20047;-69
2024/01/27 10:40:10;;;;;;;6.68;2.40;;;;;;;18.14;42.54;103551.75;4970921;28;20027;-69
2024/01/27 10:42:36;;;;;;;5.85;2.35;;;;;;;18.23;42.64;103563.72;4971094;28;20031;-69
2024/01/27 10:45:03;;;;;;;7.93;2.60;;;;;;;18.24;42.48;103565.44;4971303;28;20027;-70
2024/01/27 10:47:31;;;;;;;8.90;2.60;;;;;;;17.91;42.70;103507.78;4970633;28;20042;-69
2024/01/27 10:49:57;;;;;;;5.20;2.45;;;;;;;18.23;42.76;103559.31;4970889;28;20428;-70
2024/01/27 10:52:32;;;;;;;6.10;2.20;;;;;;;18.27;42.84;103560.06;4970842;28;20031;-67
2024/01/27 10:55:06;;;;;;;7.50;2.85;;;;;;;18.15;42.90;103547.31;4970450;28;20054;-71
2024/01/27 10:57:33;;;;;;;6.80;2.67;;;;;;;18.13;42.87;103542.09;4970470;28;20035;-70
2024/01/27 11:00:00;;;;;;;6.18;2.33;;;;;;;18.13;42.64;103540.34;4970274;28;20038;-70
2024/01/27 11:02:32;;;;;;;7.90;2.75;;;;;;;18.26;42.81;103550.41;4968705;28;20093;-71
2024/01/27 11:05:00;;;;;;;6.90;2.92;;;;;;;18.26;43.12;103553.03;4970185;28;20049;-69
2024/01/27 11:07:25;;;;;;;5.70;2.30;;;;;;;18.16;43.10;103528.78;4970400;28;20538;-70
2024/01/27 11:09:53;;;;;;;6.43;2.50;;;;;;;18.24;43.02;103536.41;4970728;28;20047;-70
2024/01/27 11:12:21;;;;;;;6.47;2.38;;;;;;;18.13;43.54;103519.25;4970377;28;20085;-69
2024/01/27 11:14:47;;;;;;;5.55;2.28;;;;;;;18.17;43.18;103521.75;4969959;28;20113;-71
2024/01/27 11:17:13;;;;;;;5.22;2.28;;;;;;;18.18;43.41;103518.19;4970610;28;20026;-70